Time;durP1;ratioP1;P1;durP2;ratioP2;P2;SDS_P1;SDS_P2;PMS_P1;PMS_P2;Temp;Humidity;BMP_temperature;BMP_pressure;BME280_temperature;BME280_humidity;BME280_pressure;Samples;Min_cycle;Max_cycle;Signal;HPM_P1;HPM_P2
2021/12/19 00:08:57;;;;;;;3.70;3.22;;;;;;;6.07;80.39;101020.08;2220663;80;31813;-69
2021/12/19 00:11:59;;;;;;;4.58;3.45;;;;;;;6.08;80.40;101010.73;2223235;79;33010;-67
2021/12/19 00:15:01;;;;;;;6.15;3.90;;;;;;;6.09;80.40;100999.66;2226955;79;28712;-66
2021/12/19 00:18:03;;;;;;;4.12;3.45;;;;;;;6.09;80.39;100999.66;2227224;79;27763;-66
2021/12/19 00:21:07;;;;;;;5.22;3.65;;;;;;;6.09;80.39;101003.64;2225980;80;29554;-67
2021/12/19 00:24:09;;;;;;;5.17;3.55;;;;;;;6.08;80.39;101001.42;2221106;80;30835;-69
2021/12/19 00:27:11;;;;;;;4.75;3.70;;;;;;;6.11;80.42;100997.84;2220573;80;32930;-66
2021/12/19 00:30:12;;;;;;;4.95;3.70;;;;;;;6.13;80.42;100984.50;2222711;79;28090;-67
2021/12/19 00:33:14;;;;;;;5.65;3.83;;;;;;;6.14;80.42;100973.81;2197845;79;27789;-66
2021/12/19 00:36:16;;;;;;;5.87;3.27;;;;;;;6.14;80.36;100967.16;2186716;81;28686;-67
2021/12/19 00:39:17;;;;;;;4.35;2.90;;;;;;;6.14;80.38;100967.63;2187896;81;31838;-67
2021/12/19 00:42:31;;;;;;;5.30;3.70;;;;;;;6.15;80.44;100952.95;2206963;79;32941;-66
2021/12/19 00:45:35;;;;;;;5.83;3.15;;;;;;;6.17;80.42;100962.25;2226993;79;28726;-67
2021/12/19 00:48:41;;;;;;;5.30;3.52;;;;;;;6.16;80.48;100954.71;2226837;79;28095;-67
2021/12/19 00:51:43;;;;;;;3.55;3.20;;;;;;;6.17;80.47;100949.81;2227065;79;28675;-66
2021/12/19 00:54:45;;;;;;;4.55;3.45;;;;;;;6.19;80.47;100953.32;2219962;79;31026;-66
2021/12/19 00:57:48;;;;;;;4.35;3.40;;;;;;;6.20;80.43;100942.25;2204719;80;32966;-66
2021/12/19 01:00:51;;;;;;;4.05;3.10;;;;;;;6.20;80.45;100949.76;2215985;80;29617;-71
2021/12/19 01:03:53;;;;;;;4.47;3.35;;;;;;;6.22;80.51;100948.38;2217772;80;27629;-66
2021/12/19 01:06:58;;;;;;;4.67;3.60;;;;;;;6.24;80.49;100946.56;2217465;80;28844;-69
2021/12/19 01:10:02;;;;;;;5.45;3.20;;;;;;;6.27;80.52;100953.16;2209990;80;31025;-68
2021/12/19 01:13:03;;;;;;;;;;;;;;;6.27;80.49;100934.53;2207321;80;35042;-69
2021/12/19 01:16:05;;;;;;;4.97;4.17;;;;;;;6.28;80.50;100930.97;2204205;80;28716;-66
2021/12/19 01:19:07;;;;;;;6.37;3.75;;;;;;;6.28;80.54;100918.13;2211882;80;27746;-67
2021/12/19 01:22:08;;;;;;;4.90;3.52;;;;;;;6.28;80.54;100904.36;2217653;80;29430;-69
2021/12/19 01:25:10;;;;;;;6.70;3.60;;;;;;;6.29;80.56;100898.60;2212206;80;30984;-70
2021/12/19 01:28:12;;;;;;;5.33;3.58;;;;;;;6.29;80.56;100891.95;2203939;80;33017;-64
2021/12/19 01:31:14;;;;;;;6.83;3.90;;;;;;;6.31;80.64;100893.66;2203125;80;28846;-65
2021/12/19 01:34:15;;;;;;;7.00;4.00;;;;;;;6.33;80.66;100886.95;2204274;80;27691;-66
2021/12/19 01:37:17;;;;;;;6.78;3.80;;;;;;;6.32;80.62;100879.44;2209374;80;28636;-66
2021/12/19 01:40:22;;;;;;;7.15;3.72;;;;;;;6.33;80.66;100887.84;2217955;80;30991;-68
2021/12/19 01:43:27;;;;;;;6.28;4.72;;;;;;;6.36;80.73;100886.89;2217929;80;32964;-69
2021/12/19 01:46:29;;;;;;;7.28;4.70;;;;;;;6.38;80.73;100886.41;2213664;80;29487;-66
2021/12/19 01:49:31;;;;;;;6.42;4.20;;;;;;;6.38;80.75;100885.94;2217277;80;27743;-66
2021/12/19 01:52:33;;;;;;;5.00;3.90;;;;;;;6.39;80.76;100882.83;2217122;80;28847;-66
2021/12/19 01:55:35;;;;;;;8.53;4.90;;;;;;;6.39;80.80;100874.37;2217155;80;30995;-67
2021/12/19 01:58:37;;;;;;;6.33;4.78;;;;;;;6.41;80.75;100870.81;2219544;80;32992;-70
2021/12/19 02:01:44;;;;;;;8.05;5.45;;;;;;;6.42;80.77;100858.81;2219683;80;30053;-67
2021/12/19 02:04:47;;;;;;;8.48;5.50;;;;;;;6.44;80.82;100857.00;2220042;80;27606;-67
2021/12/19 02:07:52;;;;;;;8.80;5.53;;;;;;;6.46;80.80;100849.83;2219417;80;28700;-68
2021/12/19 02:10:54;;;;;;;8.53;6.00;;;;;;;6.46;80.79;100840.52;2188884;79;31845;-66
2021/12/19 02:13:59;;;;;;;7.85;6.15;;;;;;;6.49;80.83;100844.44;2217025;80;32941;-66
2021/12/19 02:17:01;;;;;;;8.33;5.72;;;;;;;6.49;80.79;100837.78;2217768;80;29059;-69
2021/12/19 02:20:06;;;;;;;11.38;6.37;;;;;;;6.50;80.80;100820.91;2216950;80;27658;-69
2021/12/19 02:23:10;;;;;;;13.00;6.10;;;;;;;6.51;80.81;100813.81;2216955;80;29491;-70
2021/12/19 02:26:14;;;;;;;12.00;6.70;;;;;;;6.52;80.79;100810.23;2217273;80;32202;-67
2021/12/19 02:29:16;;;;;;;11.03;6.40;;;;;;;6.52;80.77;100795.12;2219388;80;32951;-68
2021/12/19 02:32:18;;;;;;;12.25;6.17;;;;;;;6.53;80.75;100784.03;2220342;80;29441;-66
2021/12/19 02:35:25;;;;;;;13.80;5.60;;;;;;;6.54;80.77;100779.99;2219996;80;27684;-67
2021/12/19 02:48:13;;;;;;;10.20;5.72;;;;;;;6.58;80.71;100743.98;2100632;84;29006;-67
2021/12/19 02:51:15;;;;;;;8.83;5.22;;;;;;;6.58;80.70;100728.02;2100713;84;27779;-66
2021/12/19 02:54:19;;;;;;;9.78;5.30;;;;;;;6.58;80.60;100722.22;2099993;84;27743;-67
2021/12/19 02:57:21;;;;;;;9.58;4.83;;;;;;;6.60;80.63;100724.86;2102494;83;31210;-65
2021/12/19 03:00:26;;;;;;;8.85;4.22;;;;;;;6.61;80.55;100724.80;2103816;83;33995;-66
2021/12/19 03:03:28;;;;;;;7.08;4.70;;;;;;;6.63;80.55;100717.66;2104110;83;29095;-65
2021/12/19 03:06:29;;;;;;;7.55;5.20;;;;;;;6.64;80.50;100706.09;2112864;83;27686;-65
2021/12/19 03:13:01;;;;;;;8.73;5.08;;;;;;;6.65;80.34;100692.31;2107190;84;31027;-66
2021/12/19 03:19:10;;;;;;;12.78;5.95;;;;;;;6.68;80.33;100692.23;2172192;79;29122;-64
2021/12/19 03:22:12;;;;;;;8.78;5.58;;;;;;;6.69;80.24;100677.56;2253796;79;28279;-66
2021/12/19 03:25:13;;;;;;;10.35;4.87;;;;;;;6.71;80.25;100676.18;2253856;79;29464;-64
2021/12/19 03:28:15;;;;;;;9.38;4.97;;;;;;;6.73;80.13;100677.45;2254046;79;31003;-65
2021/12/19 03:31:17;;;;;;;10.40;4.72;;;;;;;6.75;80.13;100667.64;2168489;81;32970;-67
2021/12/19 03:34:19;;;;;;;8.28;5.35;;;;;;;6.76;80.04;100658.73;2134744;81;29688;-66
2021/12/19 03:37:20;;;;;;;10.08;5.47;;;;;;;6.76;79.89;100656.97;2168323;82;27746;-66
2021/12/19 03:40:34;;;;;;;9.78;5.10;;;;;;;6.77;79.81;100655.16;2186453;81;28637;-66
2021/12/19 03:43:27;;;;;;;8.23;3.65;;;;;;;6.77;79.67;100648.50;2166555;82;31938;-68
2021/12/19 03:46:29;;;;;;;9.63;4.67;;;;;;;6.78;79.61;100644.93;2155938;81;32369;-67
2021/12/19 03:49:31;;;;;;;9.58;5.00;;;;;;;6.78;79.49;100627.18;2151559;82;29962;-66
2021/12/19 03:52:32;;;;;;;11.10;4.80;;;;;;;6.79;79.40;100634.22;2151628;82;27687;-66
2021/12/19 03:55:34;;;;;;;11.03;4.80;;;;;;;6.79;79.19;100626.70;2148160;82;28649;-66
2021/12/19 03:58:36;;;;;;;9.70;3.95;;;;;;;6.76;78.96;100625.02;2139013;83;31053;-66
2021/12/19 04:01:39;;;;;;;13.95;5.85;;;;;;;6.75;79.08;100612.62;2139128;82;33792;-65
2021/12/19 04:04:41;;;;;;;9.68;5.08;;;;;;;6.74;78.81;100608.20;2142917;82;29220;-67
2021/12/19 04:07:43;;;;;;;11.63;5.37;;;;;;;6.73;78.72;100613.11;2166644;81;28224;-67
2021/12/19 04:10:46;;;;;;;15.78;5.50;;;;;;;6.73;78.68;100602.47;2175522;81;28651;-65
2021/12/19 04:13:48;;;;;;;9.88;4.70;;;;;;;6.71;78.42;100607.39;2175602;81;31027;-66
2021/12/19 04:16:49;;;;;;;11.12;4.50;;;;;;;6.67;78.44;100602.19;2156116;81;33081;-65
2021/12/19 04:19:51;;;;;;;18.20;4.72;;;;;;;6.66;78.31;100604.88;2167731;81;29014;-65
2021/12/19 04:22:54;;;;;;;10.60;4.58;;;;;;;6.65;78.36;100601.35;2173726;81;27849;-66
2021/12/19 04:25:55;;;;;;;16.10;5.20;;;;;;;6.64;78.20;100594.72;2153641;82;29496;-67
2021/12/19 04:28:57;;;;;;;11.75;4.58;;;;;;;6.62;78.14;100589.93;2153019;82;30997;-66
2021/12/19 04:31:58;;;;;;;12.78;4.45;;;;;;;6.60;78.07;100603.27;2153880;82;32954;-66
2021/12/19 04:35:00;;;;;;;14.05;4.65;;;;;;;6.60;78.10;100600.60;2149250;81;29708;-66
2021/12/19 04:51:57;;;;;;;12.23;4.10;;;;;;;6.58;77.82;100592.26;2138277;83;29127;-65
2021/12/19 04:58:16;;;;;;;11.83;4.95;;;;;;;6.56;77.77;100576.31;2109059;83;28663;-65
2021/12/19 05:05:17;;;;;;;12.25;5.40;;;;;;;6.56;77.74;100583.44;2148359;82;33866;-65
2021/12/19 05:14:31;;;;;;;10.65;5.15;;;;;;;6.55;77.56;100571.91;2148284;82;28705;-65
2021/12/19 05:17:30;;;;;;;13.32;5.58;;;;;;;6.55;77.54;100587.88;2147814;82;31836;-65
2021/12/19 05:20:34;;;;;;;15.15;4.87;;;;;;;6.54;77.46;100595.44;2159281;82;33803;-65
2021/12/19 05:23:51;;;;;;;9.70;5.00;;;;;;;6.56;77.30;100596.75;2169228;82;29031;-65
2021/12/19 05:26:43;;;;;;;15.70;5.62;;;;;;;6.54;77.27;100595.00;2166219;82;27627;-65
2021/12/19 05:29:43;;;;;;;12.70;5.37;;;;;;;6.54;77.31;100594.11;2168825;82;29399;-64
2021/12/19 05:32:48;;;;;;;16.07;6.12;;;;;;;6.55;77.19;100593.19;2168785;81;31969;-66
2021/12/19 05:45:50;;;;;;;12.30;6.08;;;;;;;6.56;76.84;100593.61;2149029;81;28745;-65
2021/12/19 05:48:53;;;;;;;11.25;5.40;;;;;;;6.58;76.78;100581.61;2148800;81;30445;-65
2021/12/19 05:51:54;;;;;;;10.25;4.53;;;;;;;6.57;76.66;100578.06;2148710;82;33786;-66
2021/12/19 05:54:56;;;;;;;11.05;5.15;;;;;;;6.56;76.60;100577.64;2148663;82;29018;-65
2021/12/19 05:57:58;;;;;;;13.98;5.58;;;;;;;6.57;76.66;100579.86;2150955;82;27767;-65
2021/12/19 06:01:00;;;;;;;12.45;5.28;;;;;;;6.58;76.59;100581.61;2154512;82;28667;-65
2021/12/19 06:04:02;;;;;;;14.45;5.37;;;;;;;6.59;76.58;100570.05;2154277;82;31064;-66
2021/12/19 06:07:04;;;;;;;9.70;4.75;;;;;;;6.59;76.54;100563.39;2153167;82;32827;-66
2021/12/19 06:10:07;;;;;;;9.75;4.60;;;;;;;6.61;76.44;100558.90;2148195;81;28835;-65
2021/12/19 06:13:09;;;;;;;10.53;4.62;;;;;;;6.60;76.30;100557.16;2186183;81;27734;-66
2021/12/19 06:16:11;;;;;;;10.45;4.92;;;;;;;6.60;76.25;100559.34;2164265;82;29490;-67
2021/12/19 06:19:13;;;;;;;9.83;4.12;;;;;;;6.61;75.87;100554.44;2150884;81;31406;-66
2021/12/19 06:22:14;;;;;;;11.78;4.12;;;;;;;6.60;75.99;100563.34;2141242;82;33121;-66
2021/12/19 06:25:16;;;;;;;10.98;4.37;;;;;;;6.60;76.02;100571.80;2135792;82;29011;-65
2021/12/19 06:28:19;;;;;;;12.43;4.08;;;;;;;6.61;76.10;100578.86;2154099;82;27682;-65
2021/12/19 06:31:21;;;;;;;8.98;3.90;;;;;;;6.60;76.06;100564.66;2153909;82;29484;-65
2021/12/19 06:34:23;;;;;;;6.87;3.37;;;;;;;6.61;76.04;100578.39;2156986;82;31054;-66
2021/12/19 06:37:25;;;;;;;14.05;3.62;;;;;;;6.61;75.86;100561.09;2157755;82;32974;-68
2021/12/19 06:40:27;;;;;;;8.63;4.00;;;;;;;6.60;76.07;100563.80;2157941;82;29817;-66
2021/12/19 06:43:30;;;;;;;10.50;5.62;;;;;;;6.60;76.19;100547.84;2157848;82;27771;-66
2021/12/19 06:46:32;;;;;;;9.33;4.35;;;;;;;6.59;76.18;100551.41;2157821;82;29552;-65
2021/12/19 06:49:34;;;;;;;9.33;3.95;;;;;;;6.60;76.22;100536.72;2154516;82;31857;-66
2021/12/19 06:52:37;;;;;;;8.60;3.67;;;;;;;6.59;76.20;100535.44;2153804;82;33827;-65
2021/12/19 06:55:38;;;;;;;9.05;4.55;;;;;;;6.59;76.24;100522.98;2153816;82;29895;-65
2021/12/19 06:58:40;;;;;;;8.85;3.62;;;;;;;6.58;76.28;100533.22;2153575;82;27802;-65
2021/12/19 07:01:42;;;;;;;10.90;4.25;;;;;;;6.59;76.24;100530.97;2153819;82;29550;-68
2021/12/19 07:04:44;;;;;;;12.58;4.05;;;;;;;6.60;76.22;100549.17;2153844;82;32036;-65
2021/12/19 07:07:46;;;;;;;8.20;4.33;;;;;;;6.58;76.24;100554.52;2153812;82;33147;-66
2021/12/19 07:10:51;;;;;;;10.45;3.65;;;;;;;6.57;76.29;100553.24;2153838;82;29798;-66
2021/12/19 07:13:53;;;;;;;6.58;3.45;;;;;;;6.57;76.21;100546.59;2154072;82;27641;-65
2021/12/19 07:16:55;;;;;;;6.28;3.62;;;;;;;6.56;76.30;100539.52;2153925;82;29482;-65
2021/12/19 07:19:57;;;;;;;9.88;3.70;;;;;;;6.55;76.28;100546.61;2153957;82;31097;-65
2021/12/19 07:22:59;;;;;;;9.85;3.60;;;;;;;6.56;76.35;100550.16;2153899;82;32993;-66
2021/12/19 07:26:01;;;;;;;5.80;3.42;;;;;;;6.56;76.40;100539.05;2153873;82;28999;-65
2021/12/19 07:29:03;;;;;;;11.15;3.55;;;;;;;6.56;76.31;100544.37;2153939;82;27951;-66
2021/12/19 07:32:06;;;;;;;16.57;9.58;;;;;;;6.58;76.41;100549.67;2154279;82;29292;-65
2021/12/19 07:35:10;;;;;;;12.85;7.53;;;;;;;6.57;76.52;100531.95;2153825;82;31037;-68
2021/12/19 07:38:17;;;;;;;14.25;3.72;;;;;;;6.57;76.54;100518.16;2153705;82;33011;-66
2021/12/19 07:41:15;;;;;;;10.95;4.95;;;;;;;6.57;76.51;100514.17;2152895;82;29848;-65
2021/12/19 07:44:17;;;;;;;10.40;5.25;;;;;;;6.56;76.56;100508.44;2155910;82;27728;-66
2021/12/19 07:47:19;;;;;;;6.47;3.72;;;;;;;6.56;76.57;100504.91;2157811;82;29469;-65
2021/12/19 07:50:21;;;;;;;10.10;5.45;;;;;;;6.57;76.63;100519.97;2157508;82;31245;-65
2021/12/19 07:53:24;;;;;;;19.60;11.33;;;;;;;6.57;76.66;100517.31;2157822;82;32989;-65
2021/12/19 07:56:26;;;;;;;12.95;7.65;;;;;;;6.59;76.60;100512.81;2153501;82;29820;-65
2021/12/19 07:59:28;;;;;;;10.80;4.22;;;;;;;6.60;76.65;100507.91;2115618;84;27674;-65
2021/12/19 08:02:30;;;;;;;5.37;4.10;;;;;;;6.59;76.65;100501.69;2115429;84;29733;-66
2021/12/19 08:05:32;;;;;;;7.28;4.78;;;;;;;6.60;76.64;100498.59;2115401;84;32110;-66
2021/12/19 08:08:36;;;;;;;7.75;4.00;;;;;;;6.61;76.64;100502.52;2119760;82;28781;-66
2021/12/19 08:11:42;;;;;;;9.70;4.78;;;;;;;6.61;76.63;100500.34;2157727;82;29889;-66
2021/12/19 08:14:44;;;;;;;9.70;6.25;;;;;;;6.60;76.69;100496.78;2155028;82;27568;-67
2021/12/19 08:17:45;;;;;;;15.63;11.63;;;;;;;6.60;76.76;100496.78;2157706;82;28490;-66
2021/12/19 08:20:47;;;;;;;9.45;6.78;;;;;;;6.62;76.85;100510.92;2154516;82;31917;-66
2021/12/19 08:23:49;;;;;;;8.98;4.08;;;;;;;6.62;76.91;100502.08;2153762;82;32939;-66
2021/12/19 08:26:51;;;;;;;13.30;6.72;;;;;;;6.62;76.95;100506.08;2153899;82;29027;-66
2021/12/19 08:29:54;;;;;;;15.45;7.85;;;;;;;6.63;76.99;100498.47;2138395;82;27609;-66
2021/12/19 08:32:57;;;;;;;20.15;9.48;;;;;;;6.64;77.04;100499.78;2115487;84;28658;-67
2021/12/19 08:36:00;;;;;;;25.95;10.60;;;;;;;6.65;77.08;100501.96;2115343;84;31925;-66
2021/12/19 08:39:02;;;;;;;14.95;8.85;;;;;;;6.65;77.15;100494.87;2119273;82;33005;-66
2021/12/19 08:42:09;;;;;;;8.65;5.08;;;;;;;6.66;77.08;100484.63;2153778;82;29028;-66
2021/12/19 08:45:11;;;;;;;7.87;4.62;;;;;;;6.67;77.12;100493.03;2124687;82;27750;-66
2021/12/19 08:48:14;;;;;;;10.08;5.30;;;;;;;6.68;77.04;100492.56;2153816;82;29531;-68
2021/12/19 08:51:15;;;;;;;9.53;5.87;;;;;;;6.67;77.19;100489.48;2153743;82;31874;-66
2021/12/19 08:54:17;;;;;;;8.90;5.10;;;;;;;6.66;77.16;100490.40;2153665;82;33073;-68
2021/12/19 08:57:19;;;;;;;7.85;4.50;;;;;;;6.64;77.20;100484.25;2150134;82;29805;-66
2021/12/19 09:00:22;;;;;;;9.18;4.17;;;;;;;6.65;77.29;100488.66;2136454;83;27748;-66
2021/12/19 09:03:25;;;;;;;12.65;5.55;;;;;;;6.63;77.41;100482.06;2136349;83;29691;-68
2021/12/19 09:06:27;;;;;;;7.37;4.80;;;;;;;6.63;77.44;100482.50;2136415;83;30487;-66
2021/12/19 09:09:31;;;;;;;10.03;5.30;;;;;;;6.62;77.56;100472.80;2136356;82;33190;-67
2021/12/19 09:12:33;;;;;;;13.98;5.28;;;;;;;6.61;77.56;100481.23;2136829;83;29058;-67
2021/12/19 09:15:34;;;;;;;10.82;4.55;;;;;;;6.59;77.52;100487.53;2136390;83;27628;-66
2021/12/19 09:18:36;;;;;;;8.65;4.60;;;;;;;6.57;77.63;100486.70;2144825;82;28918;-68
2021/12/19 09:21:40;;;;;;;10.65;6.08;;;;;;;6.56;77.70;100488.47;2151933;82;31761;-68
2021/12/19 09:24:42;;;;;;;9.03;4.17;;;;;;;6.57;77.86;100490.69;2149946;82;33005;-67
2021/12/19 09:27:46;;;;;;;10.95;6.78;;;;;;;6.54;77.81;100500.95;2123695;83;29023;-67
2021/12/19 09:30:51;;;;;;;14.10;6.90;;;;;;;6.53;77.87;100488.59;2143641;82;32746;-68
2021/12/19 09:33:56;;;;;;;10.50;4.65;;;;;;;6.50;77.86;100486.87;2144412;82;29397;-68
2021/12/19 09:37:04;;;;;;;6.35;3.87;;;;;;;6.48;77.86;100486.52;2134509;83;31199;-67
2021/12/19 09:40:17;;;;;;;5.92;3.95;;;;;;;6.48;77.91;100484.70;2131274;83;33229;-69
2021/12/19 09:43:41;;;;;;;6.47;3.20;;;;;;;6.49;77.89;100496.24;2140990;83;29797;-71
2021/12/19 09:46:41;;;;;;;7.00;2.77;;;;;;;6.48;77.72;100471.41;2137767;83;27707;-67
2021/12/19 09:49:47;;;;;;;4.22;2.98;;;;;;;6.47;77.69;100478.97;2131666;83;28787;-67
2021/12/19 09:52:50;;;;;;;4.17;2.67;;;;;;;6.47;77.63;100466.14;2022473;86;31946;-69
2021/12/19 09:56:06;;;;;;;8.20;3.87;;;;;;;6.46;77.60;100469.72;1998515;88;34412;-69
2021/12/19 09:59:26;;;;;;;16.23;6.12;;;;;;;6.49;77.68;100463.83;2070469;85;29920;-70
2021/12/19 10:02:35;;;;;;;6.42;3.15;;;;;;;6.51;77.75;100465.14;2064864;84;27779;-70
2021/12/19 10:06:24;;;;;;;7.95;4.00;;;;;;;6.56;77.62;100451.68;2053175;86;28447;-71
2021/12/19 10:09:46;;;;;;;9.18;4.75;;;;;;;6.59;77.53;100459.58;2073890;84;31667;-71
2021/12/19 10:13:06;;;;;;;10.93;3.37;;;;;;;6.64;77.41;100441.66;2090963;85;33749;-71
2021/12/19 10:16:01;;;;;;;6.28;2.90;;;;;;;6.71;77.06;100438.34;2081042;84;29877;-70
2021/12/19 10:19:08;;;;;;;3.70;2.87;;;;;;;6.74;76.95;100432.92;2065504;86;27350;-69
2021/12/19 10:22:35;;;;;;;5.08;2.62;;;;;;;6.76;76.61;100418.66;2062660;86;28681;-72
2021/12/19 10:25:36;;;;;;;6.28;2.70;;;;;;;6.82;76.74;100413.59;2064174;86;31240;-70
2021/12/19 10:28:59;;;;;;;3.47;2.30;;;;;;;6.88;76.57;100417.37;2065309;86;33125;-70
2021/12/19 10:32:05;;;;;;;8.73;5.58;;;;;;;6.89;76.11;100412.45;2064968;86;30079;-70
2021/12/19 10:35:29;;;;;;;6.12;3.22;;;;;;;6.91;76.41;100407.95;2064730;85;27761;-70
2021/12/19 10:38:43;;;;;;;7.10;3.33;;;;;;;6.97;76.34;100397.55;2041407;86;27803;-71
2021/12/19 10:41:45;;;;;;;6.00;3.37;;;;;;;6.99;76.08;100391.28;2064506;86;31697;-71
2021/12/19 10:48:31;;;;;;;4.17;2.60;;;;;;;6.99;75.94;100379.30;2069647;83;29923;-71
2021/12/19 10:51:38;;;;;;;3.83;2.50;;;;;;;6.98;75.96;100379.33;2145073;83;27764;-70
2021/12/19 10:55:02;;;;;;;6.00;3.20;;;;;;;6.98;76.00;100376.22;2131786;82;28901;-69
2021/12/19 10:58:21;;;;;;;4.67;2.60;;;;;;;6.96;76.09;100366.07;2139708;82;31121;-70
2021/12/19 11:01:36;;;;;;;4.95;2.90;;;;;;;6.98;76.39;100374.00;2126920;83;33170;-71
2021/12/19 11:04:38;;;;;;;7.97;2.95;;;;;;;6.97;76.17;100360.27;2131551;83;29026;-70
2021/12/19 11:07:43;;;;;;;5.03;2.72;;;;;;;6.94;76.10;100350.59;2144141;82;27741;-70
2021/12/19 11:10:44;;;;;;;7.17;4.20;;;;;;;6.93;76.12;100348.00;2144497;82;28830;-69
2021/12/19 11:13:46;;;;;;;7.20;3.15;;;;;;;6.95;76.01;100335.51;2145228;82;31041;-71
2021/12/19 11:16:51;;;;;;;8.63;3.90;;;;;;;6.98;76.24;100336.70;2105893;82;33143;-69
2021/12/19 11:20:00;;;;;;;9.13;4.28;;;;;;;7.02;76.09;100342.34;2109994;83;29115;-71
2021/12/19 11:23:01;;;;;;;8.68;5.12;;;;;;;6.97;75.99;100328.31;2089715;85;28239;-71
2021/12/19 11:26:05;;;;;;;13.30;6.85;;;;;;;6.98;76.28;100332.27;2090633;83;28653;-72
2021/12/19 11:29:08;;;;;;;10.13;5.10;;;;;;;6.96;76.22;100323.91;2138994;83;31043;-72
2021/12/19 11:32:18;;;;;;;13.03;6.45;;;;;;;6.90;76.20;100322.80;2104517;83;33128;-69
2021/12/19 11:35:23;;;;;;;6.30;3.70;;;;;;;6.89;76.31;100326.38;2115815;83;29109;-68
2021/12/19 11:38:25;;;;;;;7.45;4.17;;;;;;;6.94;76.38;100311.13;2129505;83;27719;-70
2021/12/19 11:41:27;;;;;;;6.58;4.28;;;;;;;6.97;76.38;100313.22;2127042;83;29476;-73
2021/12/19 11:44:46;;;;;;;8.68;4.40;;;;;;;7.03;76.37;100303.28;2136438;83;31046;-66
2021/12/19 11:47:59;;;;;;;10.03;5.00;;;;;;;7.08;76.29;100291.98;2135401;83;33800;-66
2021/12/19 11:51:08;;;;;;;11.08;6.00;;;;;;;7.11;76.19;100306.53;2134860;83;29827;-68
2021/12/19 11:54:17;;;;;;;6.55;3.25;;;;;;;7.18;76.30;100298.74;2096369;84;27698;-72
2021/12/19 11:57:20;;;;;;;6.78;3.52;;;;;;;7.23;75.82;100281.25;2104422;84;29509;-67
2021/12/19 12:00:29;;;;;;;6.47;4.35;;;;;;;7.26;75.98;100280.67;2106618;82;31848;-74
2021/12/19 12:03:57;;;;;;;11.25;6.40;;;;;;;7.34;75.93;100271.54;2142180;82;33833;-73
2021/12/19 12:07:00;;;;;;;5.50;3.02;;;;;;;7.38;75.70;100256.70;2139870;83;29020;-66
2021/12/19 12:10:02;;;;;;;6.92;3.47;;;;;;;7.43;75.47;100253.86;2141482;83;27668;-68
2021/12/19 12:13:04;;;;;;;6.85;3.75;;;;;;;7.49;75.49;100248.76;2142555;83;28187;-72
2021/12/19 12:16:28;;;;;;;14.95;6.35;;;;;;;7.52;75.43;100249.98;2142755;83;31050;-70
2021/12/19 12:19:42;;;;;;;11.35;6.28;;;;;;;7.56;75.38;100240.47;2138871;83;33002;-73
2021/12/19 12:22:58;;;;;;;17.32;7.90;;;;;;;7.60;75.29;100240.77;2142795;83;29060;-66
2021/12/19 12:26:24;;;;;;;22.07;10.70;;;;;;;7.64;75.13;100241.98;2137619;83;27689;-69
2021/12/19 12:29:26;;;;;;;7.67;5.25;;;;;;;7.60;74.97;100243.43;2139985;83;28780;-77
2021/12/19 12:32:28;;;;;;;5.85;3.67;;;;;;;7.57;74.78;100230.21;2142044;83;31035;-72
2021/12/19 12:35:34;;;;;;;3.85;2.42;;;;;;;7.57;74.52;100232.02;2140821;83;32973;-76
2021/12/19 12:38:36;;;;;;;23.27;9.23;;;;;;;7.56;74.42;100228.95;2140508;83;29058;-64
2021/12/19 12:44:42;;;;;;;21.60;10.43;;;;;;;7.58;74.13;100215.10;2152878;81;28638;-69
2021/12/19 12:47:47;;;;;;;10.15;6.75;;;;;;;7.59;74.37;100210.17;2149603;80;31070;-66
2021/12/19 12:50:50;;;;;;;13.40;8.20;;;;;;;7.60;74.38;100212.77;2142721;83;33769;-77
2021/12/19 12:53:56;;;;;;;11.80;7.33;;;;;;;7.62;74.33;100211.84;2142227;82;29822;-76
2021/12/19 12:56:59;;;;;;;14.68;7.35;;;;;;;7.61;74.35;100206.99;2142860;83;27714;-65
2021/12/19 13:00:03;;;;;;;9.28;5.87;;;;;;;7.59;74.58;100217.70;2134037;83;28704;-71
2021/12/19 13:03:28;;;;;;;7.65;5.10;;;;;;;7.56;74.63;100212.95;2128847;83;31884;-69
2021/12/19 13:06:47;;;;;;;4.20;2.72;;;;;;;7.50;74.44;100203.41;2126816;83;33178;-69
2021/12/19 13:09:54;;;;;;;5.75;3.83;;;;;;;7.42;74.36;100215.69;2138171;83;29901;-79
2021/12/19 13:12:56;;;;;;;6.80;3.30;;;;;;;7.35;74.50;100202.66;2138925;83;27818;-73
2021/12/19 13:16:04;;;;;;;3.80;3.20;;;;;;;7.29;74.44;100193.96;2139156;83;29550;-65
2021/12/19 13:19:06;;;;;;;5.00;3.27;;;;;;;7.28;74.55;100184.70;2138404;83;31855;-68
2021/12/19 13:22:39;;;;;;;9.15;5.20;;;;;;;7.26;74.29;100174.09;2121002;83;32959;-66
2021/12/19 13:25:41;;;;;;;7.85;4.72;;;;;;;7.23;74.23;100174.20;2111748;84;29010;-78
2021/12/19 13:28:45;;;;;;;7.75;4.45;;;;;;;7.19;74.31;100172.59;2111499;84;27713;-68
2021/12/19 13:31:48;;;;;;;3.55;2.40;;;;;;;7.15;74.38;100161.64;2111419;84;28749;-72
2021/12/19 13:34:51;;;;;;;11.63;6.10;;;;;;;7.12;74.48;100166.60;2111811;84;31104;-70
2021/12/19 13:38:04;;;;;;;7.22;3.58;;;;;;;7.13;74.62;100166.16;2111930;84;32964;-70
2021/12/19 13:41:10;;;;;;;7.78;4.97;;;;;;;7.18;74.62;100175.30;2111893;84;29020;-65
2021/12/19 13:44:11;;;;;;;5.28;3.15;;;;;;;7.19;74.53;100169.05;2130481;83;27732;-68
2021/12/19 13:47:16;;;;;;;6.58;4.22;;;;;;;7.18;74.52;100165.98;2114777;84;28611;-65
2021/12/19 13:50:18;;;;;;;10.53;6.08;;;;;;;7.17;74.54;100166.91;2129275;83;31119;-70
2021/12/19 13:53:20;;;;;;;12.40;5.62;;;;;;;7.12;74.48;100163.08;2114856;84;33098;-71
2021/12/19 13:56:31;;;;;;;5.45;3.20;;;;;;;7.05;74.34;100165.56;2130419;83;29033;-65
2021/12/19 13:59:34;;;;;;;8.80;5.12;;;;;;;6.97;74.12;100156.08;2120622;83;27720;-71
2021/12/19 14:02:40;;;;;;;8.65;4.72;;;;;;;6.92;74.37;100162.50;2129900;81;29542;-67
2021/12/19 14:05:47;;;;;;;6.15;3.27;;;;;;;6.87;74.50;100157.80;2187204;81;31050;-70
2021/12/19 14:09:00;;;;;;;8.45;5.22;;;;;;;6.86;74.54;100160.05;2187095;81;33003;-67
2021/12/19 14:12:10;;;;;;;8.43;4.37;;;;;;;6.80;74.68;100150.02;2120879;82;30040;-73
2021/12/19 14:15:15;;;;;;;8.50;4.45;;;;;;;6.77;74.89;100150.61;2149762;82;27694;-81
2021/12/19 14:18:46;;;;;;;9.08;4.37;;;;;;;6.74;74.94;100142.72;2149773;82;28751;-71
2021/12/19 14:21:49;;;;;;;5.20;3.22;;;;;;;6.72;74.99;100145.91;2169150;81;31057;-72
2021/12/19 14:24:56;;;;;;;8.98;5.03;;;;;;;6.71;75.00;100148.16;2187369;81;32989;-66
2021/12/19 14:27:58;;;;;;;8.55;4.40;;;;;;;6.67;75.01;100144.74;2187252;81;29028;-64
2021/12/19 14:31:03;;;;;;;5.37;3.17;;;;;;;6.62;74.98;100142.25;2187315;81;27723;-64
2021/12/19 14:34:18;;;;;;;7.55;4.45;;;;;;;6.59;74.96;100151.67;2187393;81;28643;-67
2021/12/19 14:37:27;;;;;;;8.33;4.23;;;;;;;6.58;74.96;100138.44;2187054;81;31040;-66
2021/12/19 14:40:37;;;;;;;10.28;5.08;;;;;;;6.55;74.96;100146.05;2187178;81;33043;-65
2021/12/19 14:43:39;;;;;;;9.23;6.03;;;;;;;6.50;75.11;100129.39;2187281;81;29019;-68
2021/12/19 14:46:43;;;;;;;10.38;5.45;;;;;;;6.49;75.16;100131.64;2187419;81;27630;-66
2021/12/19 14:49:46;;;;;;;11.55;6.10;;;;;;;6.49;75.28;100132.98;2187106;81;28765;-66
2021/12/19 14:53:30;;;;;;;8.50;5.05;;;;;;;6.47;75.32;100123.70;2187282;81;31082;-65
2021/12/19 14:56:32;;;;;;;9.03;5.40;;;;;;;6.48;75.47;100117.93;2187245;81;32976;-64
2021/12/19 14:59:35;;;;;;;6.58;3.80;;;;;;;6.45;75.56;100112.27;2160916;81;29018;-65
2021/12/19 15:02:37;;;;;;;7.70;4.67;;;;;;;6.43;75.68;100103.91;2136925;81;27812;-60
2021/12/19 15:05:41;;;;;;;7.10;4.60;;;;;;;6.38;75.65;100104.94;2176231;81;28689;-62
2021/12/19 15:08:42;;;;;;;4.78;3.25;;;;;;;6.33;75.73;100097.59;2175603;81;32226;-62
2021/12/19 15:11:46;;;;;;;5.03;2.90;;;;;;;6.30;75.86;100107.45;2176177;81;34329;-63
2021/12/19 15:14:49;;;;;;;4.70;2.47;;;;;;;6.25;75.90;100111.62;2181528;81;29032;-62
2021/12/19 15:17:51;;;;;;;6.85;3.50;;;;;;;6.23;75.97;100113.45;2157232;82;27629;-64
2021/12/19 15:20:53;;;;;;;7.25;4.33;;;;;;;6.21;76.07;100122.83;2167026;81;29898;-64
2021/12/19 15:23:56;;;;;;;6.33;3.95;;;;;;;6.18;76.18;100117.61;2146377;82;31428;-65
2021/12/19 15:26:57;;;;;;;6.30;3.87;;;;;;;6.16;76.26;100118.13;2133570;82;34174;-62
2021/12/19 15:29:59;;;;;;;6.55;4.12;;;;;;;6.13;76.35;100110.24;2123869;82;28737;-62
2021/12/19 15:33:01;;;;;;;7.85;4.70;;;;;;;6.11;76.49;100106.80;2146049;82;27709;-62
2021/12/19 15:36:05;;;;;;;5.15;3.12;;;;;;;6.11;76.57;100104.13;2147297;82;29062;-68